Terminal Aerodrome Forecast
Issued by NWS

Home | Current Version | Previous Version | Graphics & Text | Print | Product List | Glossary On
Versions: 1 2 3 4 5 6 7 8
000
FTUS42 KMHX 252300
TAFOAJ
TAF
KOAJ 252335Z 2600/2624 00000KT P6SM SKC
     FM261600 VRB03KT P6SM FEW025
      AMD LTD TO CLD VIS AND WIND=

USA.gov is the U.S. government's official web portal to all federal, state and local government web resources and services.